createdAt,value
2023-01-21T00:03:29.091Z,16.25
2023-01-21T00:07:31.192Z,14.52
2023-01-21T00:11:34.808Z,13.10
2023-01-21T00:15:37.136Z,17.40
2023-01-21T00:19:39.247Z,15.98
2023-01-21T00:23:41.894Z,15.48
2023-01-21T00:27:43.944Z,17.45
2023-01-21T00:31:46.163Z,16.08
2023-01-21T00:35:58.232Z,15.35
2023-01-21T00:40:00.455Z,16.02
2023-01-21T00:44:02.668Z,20.88
2023-01-21T00:48:05.081Z,26.58
2023-01-21T00:52:07.248Z,25.05
2023-01-21T00:56:11.810Z,27.08
2023-01-21T01:00:15.116Z,26.08
2023-01-21T01:04:17.324Z,24.65
2023-01-21T01:08:19.427Z,26.95
2023-01-21T01:12:21.442Z,25.48
2023-01-21T01:16:24.178Z,24.75
2023-01-21T01:20:26.376Z,23.27
2023-01-21T01:24:28.557Z,21.38
2023-01-21T01:28:31.371Z,21.83
2023-01-21T01:32:33.365Z,21.83
2023-01-21T01:36:35.433Z,24.52
2023-01-21T01:40:37.561Z,23.17
2023-01-21T01:44:59.374Z,22.92
2023-01-21T01:49:15.539Z,24.30
2023-01-21T01:53:19.689Z,24.00
2023-01-21T01:57:25.617Z,23.48
2023-01-21T02:01:27.747Z,19.87
2023-01-21T02:05:30.580Z,20.50
2023-01-21T02:09:32.620Z,19.88
2023-01-21T02:13:34.731Z,19.05
2023-01-21T02:18:07.675Z,18.15
2023-01-21T02:22:18.042Z,19.08
2023-01-21T02:26:53.969Z,17.08
2023-01-21T02:31:26.660Z,16.73
2023-01-21T02:35:42.843Z,17.00
2023-01-21T02:39:57.809Z,18.50
2023-01-21T02:44:21.094Z,17.95
2023-01-21T02:48:32.679Z,18.92
2023-01-21T02:52:34.699Z,17.75
2023-01-21T02:56:36.794Z,18.05
2023-01-21T03:00:47.872Z,19.42
2023-01-21T03:05:08.938Z,18.92
2023-01-21T03:09:24.122Z,19.20
2023-01-21T03:13:53.656Z,18.83
2023-01-21T03:18:42.386Z,21.20
2023-01-21T03:22:45.041Z,20.20
2023-01-21T03:26:50.870Z,21.35
2023-01-21T03:31:08.641Z,22.53
2023-01-21T03:35:16.208Z,23.05
2023-01-21T03:39:33.496Z,21.30
2023-01-21T03:43:35.734Z,20.15
2023-01-21T03:47:38.971Z,19.95
2023-01-21T03:51:48.160Z,19.95
2023-01-21T03:55:51.683Z,22.63
2023-01-21T03:59:54.317Z,22.05
2023-01-21T04:03:56.448Z,24.77
2023-01-21T04:07:58.466Z,26.58
2023-01-21T04:12:00.576Z,25.38
2023-01-21T04:16:02.761Z,22.00
2023-01-21T04:20:06.081Z,22.98
2023-01-21T04:24:08.194Z,20.65
2023-01-21T04:28:10.216Z,20.65
2023-01-21T04:32:12.240Z,22.25
2023-01-21T04:36:14.302Z,18.77
2023-01-21T04:40:17.004Z,21.83
2023-01-21T04:44:19.147Z,22.50
2023-01-21T04:48:21.201Z,24.17
2023-01-21T04:52:23.263Z,22.73
2023-01-21T04:56:25.304Z,21.02
2023-01-21T05:00:27.352Z,20.73
2023-01-21T05:04:29.998Z,21.33
2023-01-21T05:08:31.980Z,28.42
2023-01-21T05:12:33.970Z,22.33
2023-01-21T05:16:36.047Z,23.65
2023-01-21T05:20:38.092Z,20.63
2023-01-21T05:24:40.094Z,20.85
2023-01-21T05:28:42.104Z,20.05
2023-01-21T05:32:44.099Z,19.20
2023-01-21T05:36:46.123Z,20.30
2023-01-21T05:40:48.141Z,19.85
2023-01-21T05:44:50.133Z,18.20
2023-01-21T05:48:52.420Z,19.05
2023-01-21T05:52:54.409Z,18.30
2023-01-21T05:56:56.501Z,19.90
2023-01-21T06:00:59.178Z,19.73
2023-01-21T06:05:01.253Z,18.83
2023-01-21T06:09:03.640Z,17.30
2023-01-21T06:13:05.646Z,20.40
2023-01-21T06:17:07.870Z,18.83
2023-01-21T06:21:09.941Z,19.38
2023-01-21T06:25:12.138Z,17.80
2023-01-21T06:29:14.133Z,20.30
2023-01-21T06:33:16.140Z,18.75
2023-01-21T06:37:18.110Z,18.27
2023-01-21T06:41:20.119Z,16.70
2023-01-21T06:45:22.127Z,20.52
2023-01-21T06:49:24.281Z,18.08
2023-01-21T06:53:26.288Z,18.33
2023-01-21T06:57:28.329Z,19.48
2023-01-21T07:01:32.518Z,18.77
2023-01-21T07:05:34.810Z,16.88
2023-01-21T07:09:36.813Z,18.40
2023-01-21T07:13:38.870Z,20.10
2023-01-21T07:17:40.915Z,18.70
2023-01-21T07:21:42.993Z,17.83
2023-01-21T07:25:45.630Z,27.05
2023-01-21T07:29:47.696Z,22.92
2023-01-21T07:33:49.726Z,23.20
2023-01-21T07:37:51.732Z,20.75
2023-01-21T07:41:53.803Z,21.27
2023-01-21T07:45:58.514Z,17.60
2023-01-21T07:50:04.949Z,14.75
2023-01-21T07:54:06.993Z,16.38
2023-01-21T07:58:10.645Z,13.30
2023-01-21T08:02:13.128Z,16.73
2023-01-21T08:06:16.422Z,15.27
2023-01-21T08:10:22.078Z,14.35
2023-01-21T08:14:24.146Z,14.73
2023-01-21T08:18:26.400Z,15.85
2023-01-21T08:22:28.389Z,14.93
2023-01-21T08:26:30.384Z,12.77
2023-01-21T08:30:32.457Z,14.15
2023-01-21T08:34:34.480Z,14.23
2023-01-21T08:38:36.604Z,16.38
2023-01-21T08:42:38.733Z,15.68
2023-01-21T08:46:40.789Z,14.57
2023-01-21T08:50:43.055Z,13.57
2023-01-21T08:54:45.076Z,14.13
2023-01-21T08:58:47.111Z,14.60
2023-01-21T09:02:51.597Z,10.80
2023-01-21T09:06:53.847Z,14.75
2023-01-21T09:11:03.051Z,17.13
2023-01-21T09:15:05.798Z,15.32
2023-01-21T09:19:07.818Z,13.45
2023-01-21T09:23:25.281Z,17.25
2023-01-21T09:27:28.149Z,15.98
2023-01-21T09:31:31.032Z,16.25
2023-01-21T09:35:33.069Z,17.95
2023-01-21T09:39:35.049Z,16.35
2023-01-21T09:43:43.677Z,17.60
2023-01-21T09:47:47.993Z,16.63
2023-01-21T09:51:57.210Z,16.30
2023-01-21T09:56:02.539Z,42.25
2023-01-21T10:00:27.805Z,31.13
2023-01-21T10:04:48.378Z,35.72
2023-01-21T10:09:09.352Z,74.35
2023-01-21T10:13:50.052Z,72.15
2023-01-21T10:18:00.765Z,126.03
2023-01-21T10:22:10.526Z,81.10
2023-01-21T10:26:14.416Z,53.22
2023-01-21T10:30:39.210Z,74.60
2023-01-21T10:34:50.174Z,27.67
2023-01-21T10:39:31.302Z,69.22
2023-01-21T10:43:45.673Z,27.77
2023-01-21T10:47:52.267Z,19.65
2023-01-21T10:52:06.320Z,15.82
2023-01-21T10:56:46.806Z,24.67
2023-01-21T11:00:50.930Z,24.75
2023-01-21T11:04:54.270Z,15.77
2023-01-21T11:09:00.213Z,19.10
2023-01-21T11:13:02.290Z,24.40
2023-01-21T11:17:04.401Z,20.80
2023-01-21T11:21:20.044Z,9.38
2023-01-21T11:25:37.068Z,13.88
2023-01-21T11:29:41.053Z,11.75
2023-01-21T11:33:43.618Z,8.13
2023-01-21T11:37:46.229Z,10.75
2023-01-21T11:41:54.150Z,11.68
2023-01-21T11:45:57.105Z,15.75
2023-01-21T11:50:12.268Z,9.60
2023-01-21T11:54:21.663Z,17.95
2023-01-21T11:58:25.005Z,12.35
2023-01-21T12:02:34.709Z,8.23
2023-01-21T12:06:37.509Z,9.15
2023-01-21T12:10:45.698Z,15.25
2023-01-21T12:14:54.056Z,10.20
2023-01-21T12:19:16.549Z,8.55
2023-01-21T12:23:57.855Z,7.57
2023-01-21T12:28:06.168Z,7.28
2023-01-21T12:32:24.445Z,9.25
2023-01-21T12:36:36.256Z,6.15
2023-01-21T12:40:50.156Z,6.85
2023-01-21T12:44:56.865Z,6.85
2023-01-21T12:49:15.443Z,5.88
2023-01-21T12:53:23.451Z,7.32
2023-01-21T12:57:36.179Z,7.18
2023-01-21T13:01:48.453Z,6.95
2023-01-21T13:05:57.285Z,7.18
2023-01-21T13:10:26.334Z,6.18
2023-01-21T13:14:35.041Z,4.75
2023-01-21T13:18:43.244Z,7.03
2023-01-21T13:22:57.901Z,6.50
2023-01-21T13:27:30.405Z,5.18
2023-01-21T13:31:45.250Z,5.57
2023-01-21T13:36:31.648Z,10.38
2023-01-21T13:40:52.294Z,4.45
2023-01-21T13:45:10.421Z,26.08
2023-01-21T13:49:45.010Z,8.10
2023-01-21T13:54:27.298Z,18.23
2023-01-21T13:58:42.657Z,15.73
2023-01-21T14:02:51.836Z,6.60
2023-01-21T14:07:02.019Z,6.97
2023-01-21T14:11:11.462Z,10.27
2023-01-21T14:15:34.375Z,5.40
2023-01-21T14:20:17.917Z,8.55
2023-01-21T14:24:35.313Z,5.90
2023-01-21T14:29:12.077Z,5.85
2023-01-21T14:33:22.809Z,5.78
2023-01-21T14:37:32.714Z,5.72
2023-01-21T14:42:10.982Z,5.80
2023-01-21T14:46:25.738Z,6.45
2023-01-21T14:50:54.108Z,6.18
2023-01-21T14:54:56.584Z,6.57
2023-01-21T14:59:01.832Z,5.32
2023-01-21T15:03:27.148Z,5.78
2023-01-21T15:07:37.930Z,5.93
2023-01-21T15:11:41.053Z,5.90
2023-01-21T15:16:02.959Z,6.38
2023-01-21T15:20:39.495Z,5.47
2023-01-21T15:25:03.462Z,6.30
2023-01-21T15:29:35.812Z,5.40
2023-01-21T15:33:44.504Z,5.13
2023-01-21T15:37:50.571Z,5.82
2023-01-21T15:42:14.942Z,6.97
2023-01-21T15:46:42.416Z,5.78
2023-01-21T15:51:20.665Z,7.05
2023-01-21T15:55:28.863Z,6.35
2023-01-21T15:59:56.378Z,6.65
2023-01-21T16:04:11.555Z,6.32
2023-01-21T16:08:26.150Z,5.97
2023-01-21T16:12:54.331Z,7.88
2023-01-21T16:17:17.776Z,6.22
2023-01-21T16:21:29.330Z,7.07
2023-01-21T16:25:32.363Z,8.45
2023-01-21T16:29:38.449Z,6.93
2023-01-21T16:33:42.156Z,19.70
2023-01-21T16:37:53.874Z,6.90
2023-01-21T16:42:07.079Z,7.78
2023-01-21T16:46:15.796Z,15.05
2023-01-21T16:50:29.219Z,8.57
2023-01-21T16:54:32.794Z,8.25
2023-01-21T16:58:35.108Z,6.93
2023-01-21T17:02:37.741Z,8.25
2023-01-21T17:06:43.617Z,9.63
2023-01-21T17:11:08.667Z,7.82
2023-01-21T17:15:21.281Z,8.32
2023-01-21T17:19:33.678Z,7.70
2023-01-21T17:23:53.745Z,6.05
2023-01-21T17:27:56.789Z,7.55
2023-01-21T17:32:05.157Z,7.57
2023-01-21T17:36:08.835Z,10.73
2023-01-21T17:40:33.851Z,8.40
2023-01-21T17:44:36.153Z,7.95
2023-01-21T17:48:44.413Z,7.95
2023-01-21T17:52:52.519Z,6.45
2023-01-21T17:56:56.565Z,8.45
2023-01-21T18:01:01.864Z,7.43
2023-01-21T18:05:04.213Z,6.60
2023-01-21T18:09:09.019Z,8.85
2023-01-21T18:13:12.933Z,6.00
2023-01-21T18:17:20.066Z,6.78
2023-01-21T18:21:22.175Z,5.53
2023-01-21T18:25:26.838Z,6.10
2023-01-21T18:29:30.558Z,7.55
2023-01-21T18:33:32.627Z,7.00
2023-01-21T18:37:34.885Z,7.82
2023-01-21T18:41:36.881Z,7.85
2023-01-21T18:45:39.253Z,7.45
2023-01-21T18:49:41.442Z,8.52
2023-01-21T18:53:43.508Z,6.97
2023-01-21T18:57:48.207Z,7.18
2023-01-21T19:01:50.306Z,6.85
2023-01-21T19:05:52.434Z,6.18
2023-01-21T19:09:54.449Z,8.02
2023-01-21T19:13:56.533Z,7.10
2023-01-21T19:17:58.611Z,6.32
2023-01-21T19:22:00.699Z,6.93
2023-01-21T19:26:04.400Z,6.35
2023-01-21T19:30:30.966Z,7.50
2023-01-21T19:34:33.043Z,5.95
2023-01-21T19:38:35.097Z,6.07
2023-01-21T19:42:37.153Z,7.72
2023-01-21T19:46:39.438Z,7.50
2023-01-21T19:50:41.639Z,8.98
2023-01-21T19:54:43.698Z,7.85
2023-01-21T19:58:45.771Z,7.30
2023-01-21T20:02:48.158Z,11.68
2023-01-21T20:06:50.238Z,8.13
2023-01-21T20:10:52.334Z,8.40
2023-01-21T20:14:54.374Z,6.60
2023-01-21T20:18:56.825Z,9.00
2023-01-21T20:23:02.091Z,9.95
2023-01-21T20:27:07.736Z,8.15
2023-01-21T20:31:11.811Z,8.77
2023-01-21T20:35:16.812Z,6.93
2023-01-21T20:39:18.893Z,7.45
2023-01-21T20:43:22.268Z,8.52
2023-01-21T20:47:37.672Z,7.47
2023-01-21T20:51:40.715Z,23.50
2023-01-21T20:55:45.748Z,8.70
2023-01-21T20:59:47.788Z,8.98
2023-01-21T21:03:50.391Z,9.00
2023-01-21T21:07:52.771Z,9.35
2023-01-21T21:11:54.868Z,14.55
2023-01-21T21:15:56.915Z,26.45
2023-01-21T21:19:59.028Z,11.93
2023-01-21T21:24:02.272Z,14.73
2023-01-21T21:28:04.457Z,10.43
2023-01-21T21:32:06.834Z,11.32
2023-01-21T21:36:21.250Z,9.52
2023-01-21T21:40:25.645Z,10.60
2023-01-21T21:44:27.670Z,14.73
2023-01-21T21:48:38.785Z,12.88
2023-01-21T21:52:40.808Z,12.23
2023-01-21T21:56:43.041Z,11.93
2023-01-21T22:00:46.020Z,12.05
2023-01-21T22:04:48.092Z,13.18
2023-01-21T22:08:53.670Z,27.83
2023-01-21T22:12:55.642Z,9.65
2023-01-21T22:16:57.781Z,13.88
2023-01-21T22:21:05.463Z,10.52
2023-01-21T22:25:09.350Z,10.05
2023-01-21T22:29:12.435Z,9.95
2023-01-21T22:33:14.488Z,9.80
2023-01-21T22:37:16.524Z,10.38
2023-01-21T22:41:21.390Z,10.18
2023-01-21T22:45:23.657Z,9.55
2023-01-21T22:49:25.795Z,10.27
2023-01-21T22:53:28.590Z,12.18
2023-01-21T22:57:30.597Z,9.75
2023-01-21T23:01:32.802Z,8.85
2023-01-21T23:05:35.551Z,11.45
2023-01-21T23:09:37.585Z,10.15
2023-01-21T23:13:39.787Z,8.90
2023-01-21T23:17:42.017Z,9.15
2023-01-21T23:21:44.136Z,8.48
2023-01-21T23:25:46.878Z,10.10
2023-01-21T23:29:48.927Z,7.63
2023-01-21T23:33:52.688Z,9.13
2023-01-21T23:37:54.707Z,5.95
2023-01-21T23:41:56.727Z,8.65
2023-01-21T23:45:59.290Z,7.60
2023-01-21T23:50:01.355Z,7.57
2023-01-21T23:54:03.573Z,6.88
2023-01-21T23:58:05.751Z,6.70
